Terminal Aerodrome Forecast
Issued by NWS

Home | Current Version | Previous Version | Text Only | Print | Product List | Glossary Off
Versions: 1 2 3 4 5 6 7 8 9 10 11 12 13 14 15 16 17

493
FTUS45 KGGW 221124
TAFSDY
TAF
KSDY 221124Z 2212/2312 VRB05KT P6SM SCT090
     FM221400 34004KT P6SM BKN010
     FM221800 35004KT P6SM BKN024
     FM221900 35004KT P6SM BKN045
     FM230700 06008KT P6SM BKN019=

USA.gov is the U.S. government's official web portal to all federal, state and local government web resources and services.